sensor_id;sensor_type;location;lat;lon;timestamp;P1;durP1;ratioP1;P2;durP2;ratioP2
27383;SDS011;14851;51.166;4.760;2024-02-14T00:01:50;6.88;;;3.38;;
27383;SDS011;14851;51.166;4.760;2024-02-14T00:04:19;5.15;;;3.25;;
27383;SDS011;14851;51.166;4.760;2024-02-14T00:06:51;3.97;;;3.08;;
27383;SDS011;14851;51.166;4.760;2024-02-14T00:09:48;7.47;;;3.40;;
27383;SDS011;14851;51.166;4.760;2024-02-14T00:12:26;5.88;;;3.50;;
27383;SDS011;14851;51.166;4.760;2024-02-14T00:14:55;3.97;;;3.55;;
27383;SDS011;14851;51.166;4.760;2024-02-14T00:17:23;4.80;;;3.40;;
27383;SDS011;14851;51.166;4.760;2024-02-14T00:19:50;4.20;;;3.15;;
27383;SDS011;14851;51.166;4.760;2024-02-14T00:22:16;5.60;;;3.20;;
27383;SDS011;14851;51.166;4.760;2024-02-14T00:24:43;5.40;;;4.10;;
27383;SDS011;14851;51.166;4.760;2024-02-14T00:27:09;5.38;;;3.70;;
27383;SDS011;14851;51.166;4.760;2024-02-14T00:29:36;5.55;;;3.05;;
27383;SDS011;14851;51.166;4.760;2024-02-14T00:32:05;6.38;;;3.28;;
27383;SDS011;14851;51.166;4.760;2024-02-14T00:34:34;6.88;;;3.60;;
27383;SDS011;14851;51.166;4.760;2024-02-14T00:37:03;6.72;;;3.28;;
27383;SDS011;14851;51.166;4.760;2024-02-14T00:40:54;6.80;;;3.38;;
27383;SDS011;14851;51.166;4.760;2024-02-14T00:43:29;6.60;;;3.17;;
27383;SDS011;14851;51.166;4.760;2024-02-14T00:46:01;7.25;;;3.60;;
27383;SDS011;14851;51.166;4.760;2024-02-14T00:48:27;4.72;;;3.20;;
27383;SDS011;14851;51.166;4.760;2024-02-14T00:51:01;5.03;;;3.47;;
27383;SDS011;14851;51.166;4.760;2024-02-14T00:53:41;6.65;;;3.60;;
27383;SDS011;14851;51.166;4.760;2024-02-14T00:56:08;5.72;;;3.20;;
27383;SDS011;14851;51.166;4.760;2024-02-14T00:58:34;3.85;;;2.88;;
27383;SDS011;14851;51.166;4.760;2024-02-14T01:01:07;6.03;;;3.10;;
27383;SDS011;14851;51.166;4.760;2024-02-14T01:03:37;4.82;;;3.50;;
27383;SDS011;14851;51.166;4.760;2024-02-14T01:06:03;5.00;;;3.08;;
27383;SDS011;14851;51.166;4.760;2024-02-14T01:08:30;4.32;;;2.88;;
27383;SDS011;14851;51.166;4.760;2024-02-14T01:10:59;5.55;;;3.13;;
27383;SDS011;14851;51.166;4.760;2024-02-14T01:13:26;4.70;;;2.85;;
27383;SDS011;14851;51.166;4.760;2024-02-14T01:28:07;5.63;;;3.35;;
27383;SDS011;14851;51.166;4.760;2024-02-14T01:31:26;7.05;;;3.63;;
27383;SDS011;14851;51.166;4.760;2024-02-14T01:39:18;9.07;;;3.80;;
27383;SDS011;14851;51.166;4.760;2024-02-14T01:42:41;7.15;;;3.70;;
27383;SDS011;14851;51.166;4.760;2024-02-14T02:06:01;6.90;;;3.97;;
27383;SDS011;14851;51.166;4.760;2024-02-14T02:20:37;7.50;;;3.55;;
27383;SDS011;14851;51.166;4.760;2024-02-14T02:45:19;6.30;;;4.47;;
27383;SDS011;14851;51.166;4.760;2024-02-14T02:47:56;5.75;;;3.88;;
27383;SDS011;14851;51.166;4.760;2024-02-14T02:50:23;7.90;;;4.57;;
27383;SDS011;14851;51.166;4.760;2024-02-14T02:52:55;6.03;;;4.22;;
27383;SDS011;14851;51.166;4.760;2024-02-14T02:56:02;6.28;;;4.18;;
27383;SDS011;14851;51.166;4.760;2024-02-14T02:58:35;7.55;;;4.50;;
27383;SDS011;14851;51.166;4.760;2024-02-14T03:01:24;8.35;;;4.40;;
27383;SDS011;14851;51.166;4.760;2024-02-14T03:03:57;7.20;;;4.70;;
27383;SDS011;14851;51.166;4.760;2024-02-14T03:06:38;8.02;;;4.28;;
27383;SDS011;14851;51.166;4.760;2024-02-14T03:33:16;7.90;;;4.78;;
27383;SDS011;14851;51.166;4.760;2024-02-14T03:35:51;8.40;;;5.25;;
27383;SDS011;14851;51.166;4.760;2024-02-14T03:41:12;10.40;;;5.73;;
27383;SDS011;14851;51.166;4.760;2024-02-14T03:43:39;10.18;;;5.90;;
27383;SDS011;14851;51.166;4.760;2024-02-14T03:46:15;9.57;;;6.47;;
27383;SDS011;14851;51.166;4.760;2024-02-14T03:53:36;10.73;;;6.35;;
27383;SDS011;14851;51.166;4.760;2024-02-14T04:03:39;17.73;;;9.88;;
27383;SDS011;14851;51.166;4.760;2024-02-14T04:22:10;9.77;;;6.03;;
27383;SDS011;14851;51.166;4.760;2024-02-14T04:27:55;10.98;;;6.90;;
27383;SDS011;14851;51.166;4.760;2024-02-14T04:30:42;9.32;;;6.72;;
27383;SDS011;14851;51.166;4.760;2024-02-14T04:33:19;11.90;;;6.55;;
27383;SDS011;14851;51.166;4.760;2024-02-14T04:55:21;13.30;;;7.38;;
27383;SDS011;14851;51.166;4.760;2024-02-14T04:59:09;11.73;;;7.35;;
27383;SDS011;14851;51.166;4.760;2024-02-14T05:01:56;14.60;;;7.68;;
27383;SDS011;14851;51.166;4.760;2024-02-14T05:04:29;11.38;;;7.30;;
27383;SDS011;14851;51.166;4.760;2024-02-14T05:10:19;12.23;;;7.22;;
27383;SDS011;14851;51.166;4.760;2024-02-14T05:13:40;11.80;;;7.18;;
27383;SDS011;14851;51.166;4.760;2024-02-14T05:16:38;14.27;;;7.28;;
27383;SDS011;14851;51.166;4.760;2024-02-14T05:19:33;10.93;;;7.78;;
27383;SDS011;14851;51.166;4.760;2024-02-14T05:22:15;14.48;;;8.15;;
27383;SDS011;14851;51.166;4.760;2024-02-14T05:25:38;14.05;;;7.22;;
27383;SDS011;14851;51.166;4.760;2024-02-14T05:36:38;10.60;;;7.50;;
27383;SDS011;14851;51.166;4.760;2024-02-14T05:39:53;12.35;;;7.22;;
27383;SDS011;14851;51.166;4.760;2024-02-14T05:56:46;14.95;;;7.28;;
27383;SDS011;14851;51.166;4.760;2024-02-14T05:59:16;14.82;;;7.40;;
27383;SDS011;14851;51.166;4.760;2024-02-14T06:01:47;11.93;;;7.18;;
27383;SDS011;14851;51.166;4.760;2024-02-14T06:04:17;18.45;;;9.80;;
27383;SDS011;14851;51.166;4.760;2024-02-14T06:06:43;14.05;;;8.23;;
27383;SDS011;14851;51.166;4.760;2024-02-14T06:09:09;12.77;;;7.88;;
27383;SDS011;14851;51.166;4.760;2024-02-14T06:11:42;16.13;;;7.82;;
27383;SDS011;14851;51.166;4.760;2024-02-14T06:14:12;13.20;;;7.40;;
27383;SDS011;14851;51.166;4.760;2024-02-14T06:17:02;13.93;;;8.07;;
27383;SDS011;14851;51.166;4.760;2024-02-14T06:22:18;10.50;;;7.47;;
27383;SDS011;14851;51.166;4.760;2024-02-14T06:24:57;10.50;;;7.50;;
27383;SDS011;14851;51.166;4.760;2024-02-14T06:27:33;11.20;;;7.57;;
27383;SDS011;14851;51.166;4.760;2024-02-14T06:30:06;14.00;;;7.55;;
27383;SDS011;14851;51.166;4.760;2024-02-14T06:32:39;12.57;;;7.53;;
27383;SDS011;14851;51.166;4.760;2024-02-14T06:35:05;10.88;;;7.57;;
27383;SDS011;14851;51.166;4.760;2024-02-14T06:37:32;13.00;;;7.78;;
27383;SDS011;14851;51.166;4.760;2024-02-14T06:39:58;14.40;;;7.38;;
27383;SDS011;14851;51.166;4.760;2024-02-14T06:42:24;11.35;;;7.28;;
27383;SDS011;14851;51.166;4.760;2024-02-14T06:45:24;14.63;;;7.97;;
27383;SDS011;14851;51.166;4.760;2024-02-14T06:48:23;13.20;;;7.85;;
27383;SDS011;14851;51.166;4.760;2024-02-14T06:50:50;11.65;;;7.25;;
27383;SDS011;14851;51.166;4.760;2024-02-14T06:53:17;15.15;;;8.10;;
27383;SDS011;14851;51.166;4.760;2024-02-14T06:55:44;13.85;;;7.47;;
27383;SDS011;14851;51.166;4.760;2024-02-14T06:58:14;15.35;;;7.70;;
27383;SDS011;14851;51.166;4.760;2024-02-14T07:00:51;14.27;;;7.50;;
27383;SDS011;14851;51.166;4.760;2024-02-14T07:03:30;12.10;;;7.18;;
27383;SDS011;14851;51.166;4.760;2024-02-14T07:06:24;13.02;;;7.65;;
27383;SDS011;14851;51.166;4.760;2024-02-14T07:09:04;14.85;;;6.97;;
27383;SDS011;14851;51.166;4.760;2024-02-14T07:11:35;15.05;;;6.70;;
27383;SDS011;14851;51.166;4.760;2024-02-14T07:14:17;16.20;;;7.63;;
27383;SDS011;14851;51.166;4.760;2024-02-14T07:17:01;14.30;;;7.13;;
27383;SDS011;14851;51.166;4.760;2024-02-14T07:19:38;14.75;;;7.90;;
27383;SDS011;14851;51.166;4.760;2024-02-14T07:22:22;12.40;;;7.67;;
27383;SDS011;14851;51.166;4.760;2024-02-14T07:36:20;22.55;;;8.55;;
27383;SDS011;14851;51.166;4.760;2024-02-14T07:40:06;13.52;;;7.57;;
27383;SDS011;14851;51.166;4.760;2024-02-14T07:43:50;14.40;;;7.20;;
27383;SDS011;14851;51.166;4.760;2024-02-14T07:55:00;22.88;;;8.48;;
27383;SDS011;14851;51.166;4.760;2024-02-14T08:01:46;17.15;;;6.90;;
27383;SDS011;14851;51.166;4.760;2024-02-14T08:04:13;15.13;;;7.07;;
27383;SDS011;14851;51.166;4.760;2024-02-14T08:06:41;13.65;;;6.82;;
27383;SDS011;14851;51.166;4.760;2024-02-14T08:09:07;13.05;;;7.53;;
27383;SDS011;14851;51.166;4.760;2024-02-14T08:11:35;14.77;;;7.18;;
27383;SDS011;14851;51.166;4.760;2024-02-14T08:14:02;13.07;;;7.10;;
27383;SDS011;14851;51.166;4.760;2024-02-14T08:16:29;12.10;;;7.40;;
27383;SDS011;14851;51.166;4.760;2024-02-14T08:18:55;12.93;;;6.95;;
27383;SDS011;14851;51.166;4.760;2024-02-14T08:21:27;13.85;;;7.13;;
27383;SDS011;14851;51.166;4.760;2024-02-14T08:23:54;13.02;;;6.53;;
27383;SDS011;14851;51.166;4.760;2024-02-14T08:26:39;15.63;;;6.57;;
27383;SDS011;14851;51.166;4.760;2024-02-14T08:29:52;10.82;;;6.88;;
27383;SDS011;14851;51.166;4.760;2024-02-14T08:32:44;13.20;;;6.60;;
27383;SDS011;14851;51.166;4.760;2024-02-14T08:35:55;11.43;;;6.80;;
27383;SDS011;14851;51.166;4.760;2024-02-14T08:38:39;13.40;;;6.40;;
27383;SDS011;14851;51.166;4.760;2024-02-14T08:41:38;11.35;;;6.38;;
27383;SDS011;14851;51.166;4.760;2024-02-14T08:44:26;11.63;;;7.32;;
27383;SDS011;14851;51.166;4.760;2024-02-14T08:47:01;13.50;;;6.93;;
27383;SDS011;14851;51.166;4.760;2024-02-14T08:49:31;12.60;;;7.28;;
27383;SDS011;14851;51.166;4.760;2024-02-14T08:52:05;14.32;;;8.30;;
27383;SDS011;14851;51.166;4.760;2024-02-14T08:54:32;15.40;;;8.18;;
27383;SDS011;14851;51.166;4.760;2024-02-14T08:56:59;13.27;;;8.27;;
27383;SDS011;14851;51.166;4.760;2024-02-14T08:59:42;17.63;;;8.68;;
27383;SDS011;14851;51.166;4.760;2024-02-14T09:02:14;16.92;;;8.38;;
27383;SDS011;14851;51.166;4.760;2024-02-14T09:04:42;16.20;;;9.02;;
27383;SDS011;14851;51.166;4.760;2024-02-14T09:07:09;12.82;;;8.70;;
27383;SDS011;14851;51.166;4.760;2024-02-14T09:09:35;16.77;;;8.60;;
27383;SDS011;14851;51.166;4.760;2024-02-14T09:12:06;11.82;;;8.23;;
27383;SDS011;14851;51.166;4.760;2024-02-14T09:14:33;15.77;;;8.23;;
27383;SDS011;14851;51.166;4.760;2024-02-14T09:16:59;14.82;;;9.27;;
27383;SDS011;14851;51.166;4.760;2024-02-14T09:19:25;17.48;;;8.38;;
27383;SDS011;14851;51.166;4.760;2024-02-14T09:21:52;14.77;;;8.15;;
27383;SDS011;14851;51.166;4.760;2024-02-14T09:24:19;15.20;;;8.60;;
27383;SDS011;14851;51.166;4.760;2024-02-14T09:26:45;16.88;;;8.30;;
27383;SDS011;14851;51.166;4.760;2024-02-14T09:29:12;12.48;;;7.63;;
27383;SDS011;14851;51.166;4.760;2024-02-14T09:31:40;14.07;;;8.20;;
27383;SDS011;14851;51.166;4.760;2024-02-14T09:34:06;12.02;;;7.65;;
27383;SDS011;14851;51.166;4.760;2024-02-14T09:36:34;10.63;;;7.55;;
27383;SDS011;14851;51.166;4.760;2024-02-14T09:39:00;14.40;;;8.00;;
27383;SDS011;14851;51.166;4.760;2024-02-14T09:41:36;12.88;;;7.45;;
27383;SDS011;14851;51.166;4.760;2024-02-14T09:44:05;14.57;;;7.85;;
27383;SDS011;14851;51.166;4.760;2024-02-14T09:46:32;11.82;;;7.15;;
27383;SDS011;14851;51.166;4.760;2024-02-14T09:49:05;10.27;;;7.15;;
27383;SDS011;14851;51.166;4.760;2024-02-14T09:51:34;15.07;;;7.85;;
27383;SDS011;14851;51.166;4.760;2024-02-14T09:54:02;11.23;;;7.47;;
27383;SDS011;14851;51.166;4.760;2024-02-14T09:56:29;13.45;;;7.95;;
27383;SDS011;14851;51.166;4.760;2024-02-14T09:58:56;14.13;;;8.25;;
27383;SDS011;14851;51.166;4.760;2024-02-14T10:01:26;12.50;;;8.30;;
27383;SDS011;14851;51.166;4.760;2024-02-14T10:03:53;13.57;;;8.35;;
27383;SDS011;14851;51.166;4.760;2024-02-14T10:06:20;13.65;;;9.40;;
27383;SDS011;14851;51.166;4.760;2024-02-14T10:08:50;14.18;;;8.48;;
27383;SDS011;14851;51.166;4.760;2024-02-14T10:11:32;13.40;;;9.05;;
27383;SDS011;14851;51.166;4.760;2024-02-14T10:14:04;12.13;;;8.85;;
27383;SDS011;14851;51.166;4.760;2024-02-14T10:16:34;11.18;;;8.98;;
27383;SDS011;14851;51.166;4.760;2024-02-14T10:19:01;11.05;;;9.38;;
27383;SDS011;14851;51.166;4.760;2024-02-14T10:21:29;14.15;;;10.02;;
27383;SDS011;14851;51.166;4.760;2024-02-14T10:24:01;11.32;;;8.23;;
27383;SDS011;14851;51.166;4.760;2024-02-14T10:26:28;11.38;;;8.82;;
27383;SDS011;14851;51.166;4.760;2024-02-14T10:28:56;13.15;;;9.20;;
27383;SDS011;14851;51.166;4.760;2024-02-14T10:31:25;11.85;;;8.90;;
27383;SDS011;14851;51.166;4.760;2024-02-14T10:33:52;10.80;;;8.95;;
27383;SDS011;14851;51.166;4.760;2024-02-14T10:36:21;15.25;;;9.45;;
27383;SDS011;14851;51.166;4.760;2024-02-14T10:38:47;10.23;;;8.77;;
27383;SDS011;14851;51.166;4.760;2024-02-14T10:41:20;10.95;;;8.85;;
27383;SDS011;14851;51.166;4.760;2024-02-14T10:43:46;10.98;;;8.07;;
27383;SDS011;14851;51.166;4.760;2024-02-14T10:46:20;10.13;;;8.30;;
27383;SDS011;14851;51.166;4.760;2024-02-14T10:48:56;9.68;;;7.70;;
27383;SDS011;14851;51.166;4.760;2024-02-14T10:51:29;9.98;;;7.40;;
27383;SDS011;14851;51.166;4.760;2024-02-14T10:53:57;12.82;;;11.60;;
27383;SDS011;14851;51.166;4.760;2024-02-14T10:56:25;10.15;;;8.07;;
27383;SDS011;14851;51.166;4.760;2024-02-14T10:58:56;10.52;;;8.32;;
27383;SDS011;14851;51.166;4.760;2024-02-14T11:01:25;12.07;;;8.75;;
27383;SDS011;14851;51.166;4.760;2024-02-14T11:04:00;12.45;;;7.82;;
27383;SDS011;14851;51.166;4.760;2024-02-14T11:06:30;9.10;;;7.70;;
27383;SDS011;14851;51.166;4.760;2024-02-14T11:08:57;10.35;;;6.80;;
27383;SDS011;14851;51.166;4.760;2024-02-14T11:11:35;9.18;;;6.70;;
27383;SDS011;14851;51.166;4.760;2024-02-14T11:14:02;9.05;;;6.05;;
27383;SDS011;14851;51.166;4.760;2024-02-14T11:16:31;10.05;;;6.13;;
27383;SDS011;14851;51.166;4.760;2024-02-14T11:19:09;6.78;;;5.40;;
27383;SDS011;14851;51.166;4.760;2024-02-14T11:21:42;9.23;;;5.57;;
27383;SDS011;14851;51.166;4.760;2024-02-14T11:24:15;8.18;;;5.20;;
27383;SDS011;14851;51.166;4.760;2024-02-14T11:26:48;8.07;;;4.70;;
27383;SDS011;14851;51.166;4.760;2024-02-14T11:29:18;6.90;;;4.80;;
27383;SDS011;14851;51.166;4.760;2024-02-14T11:31:45;6.60;;;4.03;;
27383;SDS011;14851;51.166;4.760;2024-02-14T11:34:24;6.20;;;4.00;;
27383;SDS011;14851;51.166;4.760;2024-02-14T11:36:51;7.10;;;4.47;;
27383;SDS011;14851;51.166;4.760;2024-02-14T11:39:23;6.15;;;3.97;;
27383;SDS011;14851;51.166;4.760;2024-02-14T11:41:49;6.88;;;3.70;;
27383;SDS011;14851;51.166;4.760;2024-02-14T11:44:15;6.00;;;3.42;;
27383;SDS011;14851;51.166;4.760;2024-02-14T11:46:42;6.57;;;3.65;;
27383;SDS011;14851;51.166;4.760;2024-02-14T11:49:08;3.67;;;3.22;;
27383;SDS011;14851;51.166;4.760;2024-02-14T11:51:35;3.67;;;3.30;;
27383;SDS011;14851;51.166;4.760;2024-02-14T11:54:01;4.55;;;3.50;;
27383;SDS011;14851;51.166;4.760;2024-02-14T11:56:31;6.43;;;3.95;;
27383;SDS011;14851;51.166;4.760;2024-02-14T11:59:01;4.15;;;3.42;;
27383;SDS011;14851;51.166;4.760;2024-02-14T12:04:00;5.10;;;2.85;;
27383;SDS011;14851;51.166;4.760;2024-02-14T12:06:28;3.83;;;2.65;;
27383;SDS011;14851;51.166;4.760;2024-02-14T12:08:57;4.40;;;2.80;;
27383;SDS011;14851;51.166;4.760;2024-02-14T12:11:33;3.45;;;2.67;;
27383;SDS011;14851;51.166;4.760;2024-02-14T12:14:08;6.32;;;2.83;;
27383;SDS011;14851;51.166;4.760;2024-02-14T12:16:37;4.75;;;3.17;;
27383;SDS011;14851;51.166;4.760;2024-02-14T12:19:06;3.50;;;2.55;;
27383;SDS011;14851;51.166;4.760;2024-02-14T12:21:35;3.88;;;2.95;;
27383;SDS011;14851;51.166;4.760;2024-02-14T12:24:09;3.78;;;2.97;;
27383;SDS011;14851;51.166;4.760;2024-02-14T12:26:38;3.00;;;2.67;;
27383;SDS011;14851;51.166;4.760;2024-02-14T12:29:07;4.85;;;3.03;;
27383;SDS011;14851;51.166;4.760;2024-02-14T12:31:36;3.80;;;3.00;;
27383;SDS011;14851;51.166;4.760;2024-02-14T12:34:03;3.92;;;3.03;;
27383;SDS011;14851;51.166;4.760;2024-02-14T12:36:33;4.20;;;3.47;;
27383;SDS011;14851;51.166;4.760;2024-02-14T12:39:03;6.40;;;4.10;;
27383;SDS011;14851;51.166;4.760;2024-02-14T12:41:34;4.53;;;3.30;;
27383;SDS011;14851;51.166;4.760;2024-02-14T12:44:02;4.57;;;4.00;;
27383;SDS011;14851;51.166;4.760;2024-02-14T12:46:29;6.07;;;4.00;;
27383;SDS011;14851;51.166;4.760;2024-02-14T12:49:04;6.68;;;4.20;;
27383;SDS011;14851;51.166;4.760;2024-02-14T12:51:34;8.27;;;4.72;;
27383;SDS011;14851;51.166;4.760;2024-02-14T12:54:06;6.53;;;4.65;;
27383;SDS011;14851;51.166;4.760;2024-02-14T12:56:37;8.45;;;5.03;;
27383;SDS011;14851;51.166;4.760;2024-02-14T12:59:04;7.68;;;5.25;;
27383;SDS011;14851;51.166;4.760;2024-02-14T13:01:31;9.90;;;5.78;;
27383;SDS011;14851;51.166;4.760;2024-02-14T13:03:57;9.55;;;5.50;;
27383;SDS011;14851;51.166;4.760;2024-02-14T13:06:25;9.13;;;6.13;;
27383;SDS011;14851;51.166;4.760;2024-02-14T13:08:51;8.30;;;5.60;;
27383;SDS011;14851;51.166;4.760;2024-02-14T13:11:29;8.80;;;5.95;;
27383;SDS011;14851;51.166;4.760;2024-02-14T13:13:59;10.02;;;5.65;;
27383;SDS011;14851;51.166;4.760;2024-02-14T13:16:29;8.93;;;6.18;;
27383;SDS011;14851;51.166;4.760;2024-02-14T13:18:56;9.48;;;5.85;;
27383;SDS011;14851;51.166;4.760;2024-02-14T13:21:22;7.95;;;5.80;;
27383;SDS011;14851;51.166;4.760;2024-02-14T13:23:50;9.93;;;6.32;;
27383;SDS011;14851;51.166;4.760;2024-02-14T13:26:16;10.18;;;6.38;;
27383;SDS011;14851;51.166;4.760;2024-02-14T13:28:46;9.90;;;6.38;;
27383;SDS011;14851;51.166;4.760;2024-02-14T13:31:12;10.18;;;7.50;;
27383;SDS011;14851;51.166;4.760;2024-02-14T13:33:39;16.52;;;9.02;;
27383;SDS011;14851;51.166;4.760;2024-02-14T13:36:06;14.90;;;8.20;;
27383;SDS011;14851;51.166;4.760;2024-02-14T13:38:33;8.95;;;6.68;;
27383;SDS011;14851;51.166;4.760;2024-02-14T13:41:02;9.95;;;6.63;;
27383;SDS011;14851;51.166;4.760;2024-02-14T13:43:30;11.95;;;6.55;;
27383;SDS011;14851;51.166;4.760;2024-02-14T13:45:56;9.98;;;7.05;;
27383;SDS011;14851;51.166;4.760;2024-02-14T13:48:23;9.60;;;6.40;;
27383;SDS011;14851;51.166;4.760;2024-02-14T13:50:50;9.48;;;7.03;;
27383;SDS011;14851;51.166;4.760;2024-02-14T13:53:17;8.43;;;6.15;;
27383;SDS011;14851;51.166;4.760;2024-02-14T13:55:43;8.85;;;6.32;;
27383;SDS011;14851;51.166;4.760;2024-02-14T13:58:13;8.63;;;6.00;;
27383;SDS011;14851;51.166;4.760;2024-02-14T14:00:42;7.82;;;5.65;;
27383;SDS011;14851;51.166;4.760;2024-02-14T14:03:08;9.55;;;6.07;;
27383;SDS011;14851;51.166;4.760;2024-02-14T14:05:35;11.25;;;7.45;;
27383;SDS011;14851;51.166;4.760;2024-02-14T14:08:04;9.57;;;6.20;;
27383;SDS011;14851;51.166;4.760;2024-02-14T14:10:30;8.35;;;5.65;;
27383;SDS011;14851;51.166;4.760;2024-02-14T14:12:56;8.10;;;5.75;;
27383;SDS011;14851;51.166;4.760;2024-02-14T14:15:23;7.80;;;5.20;;
27383;SDS011;14851;51.166;4.760;2024-02-14T14:17:51;9.02;;;6.25;;
27383;SDS011;14851;51.166;4.760;2024-02-14T14:20:18;10.70;;;5.25;;
27383;SDS011;14851;51.166;4.760;2024-02-14T14:22:44;7.60;;;4.93;;
27383;SDS011;14851;51.166;4.760;2024-02-14T14:25:11;8.20;;;4.57;;
27383;SDS011;14851;51.166;4.760;2024-02-14T14:27:38;6.78;;;5.05;;
27383;SDS011;14851;51.166;4.760;2024-02-14T14:30:08;6.95;;;4.40;;
27383;SDS011;14851;51.166;4.760;2024-02-14T14:32:34;7.68;;;4.00;;
27383;SDS011;14851;51.166;4.760;2024-02-14T14:35:00;5.68;;;3.80;;
27383;SDS011;14851;51.166;4.760;2024-02-14T14:37:27;5.93;;;3.05;;
27383;SDS011;14851;51.166;4.760;2024-02-14T14:39:53;5.97;;;3.75;;
27383;SDS011;14851;51.166;4.760;2024-02-14T14:42:22;7.70;;;3.53;;
27383;SDS011;14851;51.166;4.760;2024-02-14T14:44:48;8.25;;;3.90;;
27383;SDS011;14851;51.166;4.760;2024-02-14T14:47:15;5.00;;;3.20;;
27383;SDS011;14851;51.166;4.760;2024-02-14T14:49:41;5.43;;;3.40;;
27383;SDS011;14851;51.166;4.760;2024-02-14T14:52:07;5.40;;;3.75;;
27383;SDS011;14851;51.166;4.760;2024-02-14T14:54:34;5.78;;;3.47;;
27383;SDS011;14851;51.166;4.760;2024-02-14T14:57:01;5.20;;;3.67;;
27383;SDS011;14851;51.166;4.760;2024-02-14T14:59:29;5.38;;;3.25;;
27383;SDS011;14851;51.166;4.760;2024-02-14T15:01:56;7.57;;;3.55;;
27383;SDS011;14851;51.166;4.760;2024-02-14T15:04:22;4.90;;;3.33;;
27383;SDS011;14851;51.166;4.760;2024-02-14T15:06:49;6.57;;;3.95;;
27383;SDS011;14851;51.166;4.760;2024-02-14T15:09:17;7.28;;;4.20;;
27383;SDS011;14851;51.166;4.760;2024-02-14T15:11:44;6.63;;;3.90;;
27383;SDS011;14851;51.166;4.760;2024-02-14T15:14:10;6.28;;;4.35;;
27383;SDS011;14851;51.166;4.760;2024-02-14T15:16:37;8.98;;;4.30;;
27383;SDS011;14851;51.166;4.760;2024-02-14T15:19:04;5.40;;;3.50;;
27383;SDS011;14851;51.166;4.760;2024-02-14T15:21:30;5.32;;;3.97;;
27383;SDS011;14851;51.166;4.760;2024-02-14T15:23:56;4.60;;;3.30;;
27383;SDS011;14851;51.166;4.760;2024-02-14T15:26:25;6.97;;;3.85;;
27383;SDS011;14851;51.166;4.760;2024-02-14T15:28:52;5.70;;;3.78;;
27383;SDS011;14851;51.166;4.760;2024-02-14T15:31:38;9.02;;;4.03;;
27383;SDS011;14851;51.166;4.760;2024-02-14T15:34:23;7.55;;;4.28;;
27383;SDS011;14851;51.166;4.760;2024-02-14T15:36:50;6.28;;;4.78;;
27383;SDS011;14851;51.166;4.760;2024-02-14T15:39:16;6.90;;;3.92;;
27383;SDS011;14851;51.166;4.760;2024-02-14T15:41:42;8.50;;;3.78;;
27383;SDS011;14851;51.166;4.760;2024-02-14T15:44:15;6.32;;;4.00;;
27383;SDS011;14851;51.166;4.760;2024-02-14T15:46:44;7.00;;;5.30;;
27383;SDS011;14851;51.166;4.760;2024-02-14T15:49:11;7.65;;;4.30;;
27383;SDS011;14851;51.166;4.760;2024-02-14T15:51:38;7.45;;;4.07;;
27383;SDS011;14851;51.166;4.760;2024-02-14T15:54:07;9.65;;;5.35;;
27383;SDS011;14851;51.166;4.760;2024-02-14T15:56:34;8.45;;;4.72;;
27383;SDS011;14851;51.166;4.760;2024-02-14T15:59:00;8.23;;;5.80;;
27383;SDS011;14851;51.166;4.760;2024-02-14T16:01:28;10.30;;;7.70;;
27383;SDS011;14851;51.166;4.760;2024-02-14T16:03:54;7.18;;;4.20;;
27383;SDS011;14851;51.166;4.760;2024-02-14T16:06:21;10.13;;;4.13;;
27383;SDS011;14851;51.166;4.760;2024-02-14T16:08:48;7.15;;;4.05;;
27383;SDS011;14851;51.166;4.760;2024-02-14T16:11:18;5.93;;;4.18;;
27383;SDS011;14851;51.166;4.760;2024-02-14T16:13:46;6.18;;;3.58;;
27383;SDS011;14851;51.166;4.760;2024-02-14T16:16:13;13.77;;;7.45;;
27383;SDS011;14851;51.166;4.760;2024-02-14T16:18:39;8.57;;;6.13;;
27383;SDS011;14851;51.166;4.760;2024-02-14T16:21:08;8.32;;;5.35;;
27383;SDS011;14851;51.166;4.760;2024-02-14T16:23:37;12.13;;;5.88;;
27383;SDS011;14851;51.166;4.760;2024-02-14T16:26:03;8.05;;;4.40;;
27383;SDS011;14851;51.166;4.760;2024-02-14T16:28:30;6.20;;;3.85;;
27383;SDS011;14851;51.166;4.760;2024-02-14T16:30:57;10.30;;;7.30;;
27383;SDS011;14851;51.166;4.760;2024-02-14T16:33:23;9.80;;;6.00;;
27383;SDS011;14851;51.166;4.760;2024-02-14T16:35:55;10.52;;;6.15;;
27383;SDS011;14851;51.166;4.760;2024-02-14T16:38:22;11.23;;;5.65;;
27383;SDS011;14851;51.166;4.760;2024-02-14T16:41:10;7.47;;;5.25;;
27383;SDS011;14851;51.166;4.760;2024-02-14T16:43:36;7.07;;;3.83;;
27383;SDS011;14851;51.166;4.760;2024-02-14T16:46:13;6.35;;;3.20;;
27383;SDS011;14851;51.166;4.760;2024-02-14T16:48:51;7.68;;;2.88;;
27383;SDS011;14851;51.166;4.760;2024-02-14T16:51:23;7.90;;;3.83;;
27383;SDS011;14851;51.166;4.760;2024-02-14T16:53:49;4.80;;;2.95;;
27383;SDS011;14851;51.166;4.760;2024-02-14T16:56:18;9.30;;;4.75;;
27383;SDS011;14851;51.166;4.760;2024-02-14T16:58:44;7.50;;;3.60;;
27383;SDS011;14851;51.166;4.760;2024-02-14T17:01:11;7.07;;;3.75;;
27383;SDS011;14851;51.166;4.760;2024-02-14T17:03:39;9.07;;;3.83;;
27383;SDS011;14851;51.166;4.760;2024-02-14T17:06:09;8.15;;;3.63;;
27383;SDS011;14851;51.166;4.760;2024-02-14T17:08:37;7.20;;;4.25;;
27383;SDS011;14851;51.166;4.760;2024-02-14T17:11:17;7.18;;;3.50;;
27383;SDS011;14851;51.166;4.760;2024-02-14T17:13:44;6.35;;;3.28;;
27383;SDS011;14851;51.166;4.760;2024-02-14T17:16:21;7.38;;;4.32;;
27383;SDS011;14851;51.166;4.760;2024-02-14T17:18:47;7.43;;;3.97;;
27383;SDS011;14851;51.166;4.760;2024-02-14T17:21:17;7.25;;;4.22;;
27383;SDS011;14851;51.166;4.760;2024-02-14T17:23:44;8.52;;;5.25;;
27383;SDS011;14851;51.166;4.760;2024-02-14T17:26:10;7.97;;;5.18;;
27383;SDS011;14851;51.166;4.760;2024-02-14T17:28:36;8.50;;;4.50;;
27383;SDS011;14851;51.166;4.760;2024-02-14T17:31:09;8.13;;;5.57;;
27383;SDS011;14851;51.166;4.760;2024-02-14T17:33:39;15.75;;;9.38;;
27383;SDS011;14851;51.166;4.760;2024-02-14T17:36:06;11.63;;;5.65;;
27383;SDS011;14851;51.166;4.760;2024-02-14T17:38:32;15.93;;;7.60;;
27383;SDS011;14851;51.166;4.760;2024-02-14T17:41:01;12.30;;;6.75;;
27383;SDS011;14851;51.166;4.760;2024-02-14T17:43:30;9.53;;;4.77;;
27383;SDS011;14851;51.166;4.760;2024-02-14T17:46:01;15.45;;;6.97;;
27383;SDS011;14851;51.166;4.760;2024-02-14T17:48:28;10.23;;;5.38;;
27383;SDS011;14851;51.166;4.760;2024-02-14T17:51:03;12.35;;;6.60;;
27383;SDS011;14851;51.166;4.760;2024-02-14T17:53:34;15.48;;;7.15;;
27383;SDS011;14851;51.166;4.760;2024-02-14T17:56:01;12.65;;;6.30;;
27383;SDS011;14851;51.166;4.760;2024-02-14T17:58:27;10.98;;;6.35;;
27383;SDS011;14851;51.166;4.760;2024-02-14T18:00:56;11.77;;;6.18;;
27383;SDS011;14851;51.166;4.760;2024-02-14T18:03:23;16.30;;;8.23;;
27383;SDS011;14851;51.166;4.760;2024-02-14T18:05:52;36.95;;;15.65;;
27383;SDS011;14851;51.166;4.760;2024-02-14T18:08:18;35.78;;;14.88;;
27383;SDS011;14851;51.166;4.760;2024-02-14T18:10:48;14.35;;;7.70;;
27383;SDS011;14851;51.166;4.760;2024-02-14T18:13:15;10.60;;;5.65;;
27383;SDS011;14851;51.166;4.760;2024-02-14T18:15:41;11.23;;;4.65;;
27383;SDS011;14851;51.166;4.760;2024-02-14T18:18:08;13.13;;;5.22;;
27383;SDS011;14851;51.166;4.760;2024-02-14T18:20:34;11.80;;;4.75;;
27383;SDS011;14851;51.166;4.760;2024-02-14T18:23:03;8.77;;;4.60;;
27383;SDS011;14851;51.166;4.760;2024-02-14T18:25:30;11.25;;;5.70;;
27383;SDS011;14851;51.166;4.760;2024-02-14T18:27:57;14.70;;;4.90;;
27383;SDS011;14851;51.166;4.760;2024-02-14T18:30:24;13.98;;;5.63;;
27383;SDS011;14851;51.166;4.760;2024-02-14T18:32:50;11.50;;;5.05;;
27383;SDS011;14851;51.166;4.760;2024-02-14T18:35:20;11.95;;;4.55;;
27383;SDS011;14851;51.166;4.760;2024-02-14T18:37:59;8.80;;;4.88;;